Airfield :
LOGIN :

Register | Disclaimer

   EN    FR    IT 

 










Legend :    VFR   Marginal VFR   IFR   Intensive IFR   Very Intensive IFR
Visi :
Ceiling :
>= 8 km
>= 3000ft
5 to 8 km
1000 to 3000 ft
1500m to 5 km
500 to 1000 ft
800 to 1500m
200 to 500 ft
< 800m
< 200 ft
Symbols :   Thunderstorms  Fog  Heavy snow  Heavy precipitations  Wind > 20 kt
SIGMETs :     Misc.  Thunderstorms  Icing  Turbulence  Mountain Waves  Volcanic Ashes






- Airport Elevation : 131 ft
- IATA code : TLL


EETN - Talinn

CURRENT METAR :
  • 290450Z 11003KT 9999 SCT006 BKN020 11/10 Q1018 NOSIG

EXPIRED METARs :
  • 290420Z 12003KT 9999 OVC021 11/10 Q1018 NOSIG
  • 290350Z 11004KT 9999 OVC020 11/10 Q1018 NOSIG
  • 290320Z 12004KT 9999 OVC019 11/10 Q1018
  • 290250Z 11004KT 9999 OVC018 11/10 Q1018
  • 290220Z 11003KT 9999 BKN018 10/09 Q1018

TAF TAF EETN
Valid from the 29 at 00:00 until the 30 at 00:00 UTC


282315Z 2900/2924 12007KT 9999 BKN020
TEMPO 2901/2907 BKN005 OVC018
PROB40
TEMPO 2907/2914 6000 SHRA BKN010 SCT015CB
BECMG 2914/2916 BKN004 OVC010
TEMPO 2917/2924 3000 BR



MET'MAP, your aeronautical weather chart ! - Copyright ORBIFLY December 2007 - Disclaimer

ORBIFLY MET'MAP TEAM :

Programming & Development : Alexandra Zaïnal
Concept & original design : Baudouin d'Aumeries
Assistance for programming : Marc-Olivier Méhu
Technical & hardware support : Manuel Goepfert

Contact : metmap@orbifly.com




SOURCES & CREDITS :

   NOAA